Time;durP1;ratioP1;P1;durP2;ratioP2;P2;SDS_P1;SDS_P2;PMS_P1;PMS_P2;Temp;Humidity;BMP_temperature;BMP_pressure;BME280_temperature;BME280_humidity;BME280_pressure;Samples;Min_cycle;Max_cycle;Signal;HPM_P1;HPM_P2
2023/12/11 00:03:19;;;;;;;3.03;2.93;;;9.90;99.90;;;;;;10400905;28;20207;-81
2023/12/11 00:08:22;;;;;;;3.37;3.07;;;9.90;99.90;;;;;;10394447;28;20201;-80
2023/12/11 00:13:26;;;;;;;3.57;2.90;;;9.90;99.90;;;;;;10376668;28;20222;-81
2023/12/11 00:18:28;;;;;;;2.57;2.43;;;9.90;99.90;;;;;;10379021;28;20732;-79
2023/12/11 00:23:31;;;;;;;2.83;2.63;;;10.00;99.90;;;;;;10426670;28;20221;-80
2023/12/11 00:28:34;;;;;;;2.20;2.10;;;10.00;99.90;;;;;;10380818;28;20242;-80
2023/12/11 00:33:37;;;;;;;3.67;2.53;;;10.00;99.90;;;;;;10388545;28;20241;-80
2023/12/11 00:38:39;;;;;;;3.17;2.30;;;10.00;99.90;;;;;;10363530;28;20226;-81
2023/12/11 00:43:43;;;;;;;2.10;2.00;;;10.10;99.90;;;;;;10387236;28;20399;-80
2023/12/11 00:48:46;;;;;;;3.03;2.10;;;10.20;99.90;;;;;;10375885;28;20630;-81
2023/12/11 00:53:48;;;;;;;2.23;2.10;;;10.30;99.90;;;;;;10381299;28;20632;-81
2023/12/11 00:58:52;;;;;;;2.60;2.50;;;10.30;99.90;;;;;;10355958;28;20688;-81
2023/12/11 01:03:55;;;;;;;2.60;2.40;;;10.40;99.90;;;;;;10385796;28;20435;-79
2023/12/11 01:08:57;;;;;;;2.50;2.30;;;10.50;99.90;;;;;;10397415;28;20198;-81
2023/12/11 01:14:01;;;;;;;2.40;2.20;;;10.50;99.90;;;;;;10375422;28;20277;-79
2023/12/11 01:19:03;;;;;;;3.43;3.17;;;10.50;99.90;;;;;;10374271;28;20245;-78
2023/12/11 01:24:06;;;;;;;2.20;2.10;;;10.60;99.90;;;;;;10379868;28;20257;-80
2023/12/11 01:29:10;;;;;;;2.20;2.10;;;10.60;99.90;;;;;;10395426;28;20712;-78
2023/12/11 01:34:13;;;;;;;2.20;2.10;;;10.70;99.90;;;;;;10397052;28;20222;-80
2023/12/11 01:39:15;;;;;;;2.00;1.90;;;10.70;99.90;;;;;;10381699;28;20222;-81
2023/12/11 01:44:19;;;;;;;2.07;1.97;;;10.70;99.90;;;;;;10374954;28;20217;-80
2023/12/11 01:49:22;;;;;;;2.37;2.27;;;10.70;99.90;;;;;;10355271;28;20242;-81
2023/12/11 01:54:25;;;;;;;2.27;2.17;;;10.70;99.90;;;;;;10358073;28;20229;-81
2023/12/11 01:59:29;;;;;;;2.83;2.63;;;10.70;99.90;;;;;;10359036;28;20194;-81
2023/12/11 02:04:31;;;;;;;2.20;2.10;;;10.70;99.90;;;;;;10356982;28;20214;-81
2023/12/11 02:09:34;;;;;;;2.30;2.13;;;10.80;99.90;;;;;;10362261;28;20696;-78
2023/12/11 02:14:38;;;;;;;2.20;2.10;;;10.80;99.90;;;;;;10333914;28;20223;-78
2023/12/11 02:19:40;;;;;;;2.07;2.00;;;10.80;99.90;;;;;;10391196;28;20264;-81
2023/12/11 02:24:48;;;;;;;2.03;2.00;;;10.80;99.90;;;;;;10388980;28;20249;-82
2023/12/11 02:29:54;;;;;;;1.83;1.73;;;10.80;99.90;;;;;;10397578;28;20194;-81
2023/12/11 02:34:57;;;;;;;2.10;2.00;;;10.80;99.90;;;;;;10383000;28;20226;-80
2023/12/11 02:39:59;;;;;;;1.50;1.50;;;10.80;99.90;;;;;;10413521;28;20206;-80
2023/12/11 02:45:03;;;;;;;1.67;1.57;;;10.80;99.90;;;;;;10380451;28;20214;-81
2023/12/11 02:50:07;;;;;;;1.70;1.70;;;10.80;99.90;;;;;;10410847;28;20198;-80
2023/12/11 02:55:09;;;;;;;1.80;1.80;;;10.80;99.90;;;;;;10404729;28;20604;-80
2023/12/11 03:00:13;;;;;;;1.87;1.77;;;10.90;99.90;;;;;;10408366;28;20554;-80
2023/12/11 03:05:16;;;;;;;2.53;2.40;;;10.90;99.90;;;;;;10384777;28;20696;-80
2023/12/11 03:10:18;;;;;;;3.50;3.40;;;11.00;99.90;;;;;;10388407;28;20213;-80
2023/12/11 03:15:22;;;;;;;3.90;3.80;;;10.90;99.90;;;;;;10385694;28;20346;-77
2023/12/11 03:20:25;;;;;;;6.67;6.37;;;10.80;99.90;;;;;;10411023;28;20205;-80
2023/12/11 03:25:27;;;;;;;6.60;6.40;;;10.70;99.90;;;;;;10387186;28;20308;-80
2023/12/11 03:30:31;;;;;;;7.00;6.80;;;10.60;99.90;;;;;;10412327;28;20201;-81
2023/12/11 03:35:33;;;;;;;7.13;6.93;;;10.50;99.90;;;;;;10388372;28;20300;-80
2023/12/11 03:40:36;;;;;;;7.90;7.60;;;10.40;99.90;;;;;;10411418;28;20707;-80
2023/12/11 03:45:40;;;;;;;7.80;7.50;;;10.30;99.90;;;;;;10387717;28;20620;-80
2023/12/11 03:50:42;;;;;;;8.33;8.03;;;10.30;99.90;;;;;;10410586;28;20197;-80
2023/12/11 03:55:45;;;;;;;7.60;7.40;;;10.30;99.90;;;;;;10389119;28;20336;-80
2023/12/11 04:00:49;;;;;;;7.80;7.40;;;10.30;99.90;;;;;;10410157;28;20190;-80
2023/12/11 04:05:51;;;;;;;6.90;6.70;;;10.40;99.90;;;;;;10372441;28;20223;-80
2023/12/11 04:10:53;;;;;;;7.47;7.17;;;10.40;99.90;;;;;;10410168;28;20272;-80
2023/12/11 04:15:57;;;;;;;5.60;5.50;;;10.40;99.90;;;;;;10390274;28;20227;-80
2023/12/11 04:21:00;;;;;;;5.20;5.00;;;10.30;99.90;;;;;;10409041;28;20734;-80
2023/12/11 04:26:02;;;;;;;5.10;5.00;;;10.30;99.90;;;;;;10379586;28;20222;-79
2023/12/11 04:31:06;;;;;;;4.33;4.13;;;10.30;99.90;;;;;;10418519;28;20224;-80
2023/12/11 04:36:09;;;;;;;5.60;5.50;;;10.30;99.90;;;;;;10390827;28;20230;-80
2023/12/11 04:41:12;;;;;;;5.70;5.50;;;10.30;99.90;;;;;;10408357;28;20565;-80
2023/12/11 04:46:15;;;;;;;5.20;5.00;;;10.30;99.90;;;;;;10395856;28;20218;-81
2023/12/11 04:51:18;;;;;;;5.83;5.63;;;10.30;99.90;;;;;;10408805;28;20206;-80
2023/12/11 04:56:23;;;;;;;4.83;4.60;;;10.30;99.90;;;;;;10395512;28;20273;-80
2023/12/11 05:01:27;;;;;;;4.67;4.47;;;10.40;99.90;;;;;;10410188;28;20329;-81
2023/12/11 05:06:29;;;;;;;3.70;3.60;;;10.40;99.90;;;;;;10422429;28;20560;-81
2023/12/11 05:11:32;;;;;;;4.07;3.73;;;10.30;99.90;;;;;;10394792;28;20614;-80
2023/12/11 05:16:36;;;;;;;4.53;4.33;;;10.30;99.90;;;;;;10406316;28;20237;-81
2023/12/11 05:21:38;;;;;;;4.13;4.00;;;10.30;99.90;;;;;;10394206;28;20675;-79
2023/12/11 05:26:41;;;;;;;3.63;3.43;;;10.30;99.90;;;;;;10360152;28;20301;-80
2023/12/11 05:31:45;;;;;;;4.63;4.43;;;10.30;99.90;;;;;;10407147;28;20202;-81
2023/12/11 05:36:47;;;;;;;3.77;3.67;;;10.30;99.90;;;;;;10391548;28;20699;-80
2023/12/11 05:41:50;;;;;;;4.20;4.10;;;10.30;99.90;;;;;;10401545;28;20213;-80
2023/12/11 05:46:54;;;;;;;3.93;3.63;;;10.30;99.90;;;;;;10395107;28;20753;-81
2023/12/11 05:51:57;;;;;;;3.87;3.57;;;10.30;99.90;;;;;;10405154;28;20213;-80
2023/12/11 05:56:59;;;;;;;3.77;3.57;;;10.30;99.90;;;;;;10415610;28;20699;-82
2023/12/11 06:02:03;;;;;;;4.00;3.70;;;10.40;99.90;;;;;;10377421;28;20202;-80
2023/12/11 06:07:06;;;;;;;3.50;3.40;;;10.30;99.90;;;;;;10409366;28;20217;-80
2023/12/11 06:12:10;;;;;;;3.60;3.50;;;10.40;99.90;;;;;;10374040;28;20218;-80
2023/12/11 06:17:14;;;;;;;4.10;3.63;;;10.40;99.90;;;;;;10396917;28;20237;-80
2023/12/11 06:22:16;;;;;;;3.10;3.00;;;10.30;99.90;;;;;;10389341;28;20199;-80
2023/12/11 06:27:19;;;;;;;2.83;2.73;;;10.40;99.90;;;;;;10380022;28;20222;-80
2023/12/11 06:32:22;;;;;;;3.30;3.20;;;10.40;99.90;;;;;;10406374;28;20252;-79
2023/12/11 06:37:25;;;;;;;3.27;3.17;;;10.40;99.90;;;;;;10390027;28;20226;-80
2023/12/11 06:42:27;;;;;;;2.63;2.43;;;10.50;99.90;;;;;;10377068;28;20207;-80
2023/12/11 06:47:31;;;;;;;2.57;2.47;;;10.50;99.90;;;;;;10354538;28;20206;-79
2023/12/11 06:52:34;;;;;;;4.07;2.90;;;10.60;99.90;;;;;;10364082;28;20581;-80
2023/12/11 06:57:36;;;;;;;3.00;2.90;;;10.70;99.90;;;;;;10343762;28;20219;-80
2023/12/11 07:02:40;;;;;;;7.70;3.37;;;10.70;99.90;;;;;;10399410;28;20210;-79
2023/12/11 07:07:42;;;;;;;3.20;3.00;;;10.70;99.90;;;;;;10400003;28;20223;-80
2023/12/11 07:12:45;;;;;;;2.47;2.37;;;10.60;99.90;;;;;;10399366;28;20209;-81
2023/12/11 07:17:49;;;;;;;3.20;3.00;;;10.60;99.90;;;;;;10400718;28;20227;-79
2023/12/11 07:22:52;;;;;;;2.47;2.37;;;10.60;99.90;;;;;;10382736;28;20202;-79
2023/12/11 07:27:54;;;;;;;2.93;2.83;;;10.50;99.90;;;;;;10405060;28;20598;-80
2023/12/11 07:32:58;;;;;;;3.03;2.93;;;10.50;99.90;;;;;;10401117;28;20201;-78
2023/12/11 07:38:01;;;;;;;4.33;3.20;;;10.60;99.90;;;;;;10398341;28;20229;-80
2023/12/11 07:43:05;;;;;;;2.60;2.50;;;10.60;99.90;;;;;;10383883;28;20632;-80
2023/12/11 07:48:10;;;;;;;5.00;2.97;;;10.60;99.90;;;;;;10377817;28;20560;-80
2023/12/11 07:53:12;;;;;;;3.30;3.10;;;10.60;99.90;;;;;;10398173;28;20248;-80
2023/12/11 07:58:15;;;;;;;3.30;3.07;;;10.70;99.90;;;;;;10386232;28;20232;-80
2023/12/11 08:03:18;;;;;;;2.93;2.83;;;10.60;99.90;;;;;;10401427;28;20260;-81
2023/12/11 08:08:21;;;;;;;3.50;3.20;;;10.60;99.90;;;;;;10397862;28;20206;-81
2023/12/11 08:13:23;;;;;;;2.90;2.70;;;10.60;99.90;;;;;;10402359;28;20680;-80
2023/12/11 08:18:27;;;;;;;2.37;2.27;;;10.60;99.90;;;;;;10395429;28;20276;-80
2023/12/11 08:23:30;;;;;;;2.30;2.20;;;10.60;99.90;;;;;;10398905;28;20229;-81
2023/12/11 08:28:33;;;;;;;2.50;2.40;;;10.80;99.90;;;;;;10361985;28;20230;-80
2023/12/11 08:33:37;;;;;;;3.20;2.90;;;10.80;99.90;;;;;;10363350;28;20663;-81
2023/12/11 08:38:39;;;;;;;5.00;2.57;;;10.90;99.90;;;;;;10361867;28;20897;-80
2023/12/11 08:43:42;;;;;;;2.17;2.07;;;11.00;99.90;;;;;;10362257;28;20239;-80
2023/12/11 08:48:46;;;;;;;3.93;2.77;;;11.10;99.90;;;;;;10360642;28;20199;-80
2023/12/11 08:53:48;;;;;;;2.37;2.27;;;11.20;99.90;;;;;;10358024;28;20214;-80
2023/12/11 08:58:51;;;;;;;2.33;2.13;;;11.10;99.90;;;;;;10358360;28;20272;-81
2023/12/11 09:03:55;;;;;;;2.03;1.93;;;11.20;99.90;;;;;;10347060;28;20215;-80
2023/12/11 09:08:57;;;;;;;2.67;1.83;;;11.10;99.90;;;;;;10359948;28;20583;-80
2023/12/11 09:14:00;;;;;;;2.20;2.10;;;11.00;99.90;;;;;;10356433;28;20211;-77
2023/12/11 09:19:04;;;;;;;2.17;2.07;;;11.10;99.90;;;;;;10357729;28;20565;-80
2023/12/11 09:24:06;;;;;;;2.00;1.90;;;11.30;99.90;;;;;;10359721;28;20226;-80
2023/12/11 09:29:09;;;;;;;1.70;1.60;;;11.40;99.90;;;;;;10359310;28;20203;-80
2023/12/11 09:34:13;;;;;;;2.43;1.67;;;11.50;99.90;;;;;;10366123;28;20222;-80
2023/12/11 09:39:15;;;;;;;3.60;2.00;;;11.60;99.90;;;;;;10377369;28;20218;-81
2023/12/11 09:44:18;;;;;;;1.87;1.50;;;11.60;99.90;;;;;;10383624;28;20218;-81
2023/12/11 09:49:22;;;;;;;2.00;1.77;;;11.70;99.90;;;;;;10387104;28;20202;-81
2023/12/11 09:54:25;;;;;;;1.53;1.43;;;11.70;99.90;;;;;;10379623;28;20758;-80
2023/12/11 09:59:30;;;;;;;2.60;1.77;;;11.80;99.90;;;;;;10385569;28;20770;-80
2023/12/11 10:04:34;;;;;;;1.97;1.50;;;11.80;99.90;;;;;;10364937;28;20225;-80
2023/12/11 10:09:36;;;;;;;1.97;1.70;;;11.90;99.90;;;;;;10384541;28;20609;-81
2023/12/11 10:14:39;;;;;;;3.63;1.60;;;11.90;99.90;;;;;;10381107;28;20226;-80
2023/12/11 10:19:43;;;;;;;2.77;1.60;;;12.00;99.90;;;;;;10385754;28;20229;-81
2023/12/11 10:24:45;;;;;;;1.50;1.40;;;12.20;99.90;;;;;;10378643;28;20222;-81
2023/12/11 10:29:48;;;;;;;3.70;1.57;;;12.20;99.90;;;;;;10385159;28;20256;-81
2023/12/11 10:34:52;;;;;;;1.40;1.30;;;12.40;99.90;;;;;;10378034;28;20238;-80
2023/12/11 10:39:55;;;;;;;2.67;1.80;;;12.50;99.90;;;;;;10401471;28;20228;-81
2023/12/11 10:44:58;;;;;;;2.57;1.50;;;12.70;99.90;;;;;;10357895;28;20731;-80
2023/12/11 10:50:02;;;;;;;1.70;1.50;;;12.70;99.90;;;;;;10382154;28;20271;-80
2023/12/11 10:55:05;;;;;;;1.30;1.20;;;12.70;99.90;;;;;;10372184;28;20230;-81
2023/12/11 11:00:13;;;;;;;1.53;1.43;;;12.70;99.90;;;;;;10381200;28;20233;-81
2023/12/11 11:05:17;;;;;;;1.60;1.50;;;12.70;99.90;;;;;;10382497;28;20246;-81
2023/12/11 11:10:22;;;;;;;1.70;1.60;;;12.70;99.90;;;;;;10383990;28;20672;-80
2023/12/11 11:15:25;;;;;;;1.70;1.60;;;12.60;99.90;;;;;;10380137;28;20279;-80
2023/12/11 11:20:30;;;;;;;2.00;1.87;;;12.60;99.90;;;;;;10381197;28;20230;-81
2023/12/11 11:25:36;;;;;;;3.23;1.80;;;12.60;99.90;;;;;;10385699;28;20221;-80
2023/12/11 11:30:50;;;;;;;2.17;1.80;;;12.60;99.90;;;;;;10378281;28;20216;-81
2023/12/11 11:35:59;;;;;;;1.70;1.60;;;12.70;99.90;;;;;;10387558;28;20240;-81
2023/12/11 11:41:01;;;;;;;3.57;2.13;;;12.60;99.90;;;;;;10367303;28;20226;-81
2023/12/11 11:46:04;;;;;;;3.47;1.90;;;12.70;99.90;;;;;;10391797;28;20634;-81
2023/12/11 11:51:07;;;;;;;3.90;2.13;;;12.70;99.90;;;;;;10364257;28;20210;-81
2023/12/11 11:56:11;;;;;;;3.87;1.90;;;12.70;99.90;;;;;;10387057;28;20222;-81
2023/12/11 12:01:13;;;;;;;1.93;1.63;;;12.60;99.90;;;;;;10389373;28;20214;-81
2023/12/11 12:06:18;;;;;;;6.70;2.10;;;12.60;99.90;;;;;;10395306;28;20916;-81
2023/12/11 12:11:20;;;;;;;3.60;2.03;;;12.50;99.90;;;;;;10369660;28;20216;-80
2023/12/11 12:16:29;;;;;;;4.47;1.90;;;12.40;99.90;;;;;;10386184;28;20223;-80
2023/12/11 12:21:33;;;;;;;6.60;2.40;;;12.30;99.90;;;;;;10387212;28;20229;-81
2023/12/11 12:26:36;;;;;;;2.90;1.60;;;12.30;99.90;;;;;;10389747;28;20215;-81
2023/12/11 12:31:39;;;;;;;3.00;1.70;;;12.30;99.90;;;;;;10387357;28;20197;-80
2023/12/11 12:36:44;;;;;;;3.27;1.70;;;12.20;99.90;;;;;;10382527;28;20586;-80
2023/12/11 12:41:48;;;;;;;6.70;2.27;;;12.30;99.90;;;;;;10392134;28;20233;-79
2023/12/11 12:46:51;;;;;;;7.27;3.23;;;12.20;99.90;;;;;;10376030;28;20234;-81
2023/12/11 12:51:55;;;;;;;6.53;2.30;;;12.20;99.90;;;;;;10383377;28;20652;-80
2023/12/11 12:56:59;;;;;;;5.77;2.13;;;12.20;99.90;;;;;;10371570;28;20276;-80
2023/12/11 13:02:01;;;;;;;5.07;2.10;;;12.30;99.90;;;;;;10391562;28;20225;-80
2023/12/11 13:07:12;;;;;;;4.13;2.00;;;12.30;99.90;;;;;;10364469;28;20256;-79
2023/12/11 13:12:17;;;;;;;4.30;2.00;;;12.30;99.90;;;;;;10385310;28;20202;-80
2023/12/11 13:17:19;;;;;;;8.40;1.60;;;12.30;99.90;;;;;;10383993;28;20214;-80
2023/12/11 13:22:23;;;;;;;4.77;1.80;;;12.30;99.90;;;;;;10385335;28;20250;-81
2023/12/11 13:27:26;;;;;;;2.80;1.90;;;12.30;99.90;;;;;;10389831;28;20225;-80
2023/12/11 13:32:28;;;;;;;4.47;1.87;;;12.30;99.90;;;;;;10364657;28;20206;-80
2023/12/11 13:37:32;;;;;;;4.33;1.93;;;12.20;99.90;;;;;;10384462;28;20769;-81
2023/12/11 13:42:35;;;;;;;4.30;1.63;;;12.20;99.90;;;;;;10380821;28;20215;-80
2023/12/11 13:47:38;;;;;;;5.33;2.03;;;12.20;99.90;;;;;;10379905;28;20233;-81
2023/12/11 13:52:42;;;;;;;3.10;2.13;;;12.10;99.90;;;;;;10410454;28;20193;-80
2023/12/11 13:57:44;;;;;;;5.10;2.40;;;12.20;99.90;;;;;;10383206;28;20229;-79
2023/12/11 14:02:46;;;;;;;5.23;1.83;;;12.20;99.90;;;;;;10416948;28;20675;-79
2023/12/11 14:07:52;;;;;;;4.53;2.63;;;12.20;99.90;;;;;;10411062;28;20219;-80
2023/12/11 14:12:54;;;;;;;5.30;2.17;;;12.10;99.90;;;;;;10363974;28;20206;-79
2023/12/11 14:17:57;;;;;;;4.37;2.53;;;12.00;99.90;;;;;;10407579;28;20214;-80
2023/12/11 14:23:01;;;;;;;5.10;2.47;;;12.00;99.90;;;;;;10359208;28;20202;-80
2023/12/11 14:28:04;;;;;;;5.40;2.30;;;11.90;99.90;;;;;;10380852;28;20229;-79
2023/12/11 14:33:08;;;;;;;6.27;2.77;;;11.90;99.90;;;;;;10411008;28;20210;-80
2023/12/11 14:38:11;;;;;;;5.30;2.20;;;11.90;99.90;;;;;;10387138;28;20194;-78
2023/12/11 14:43:14;;;;;;;8.33;2.67;;;11.80;99.90;;;;;;10411232;28;20575;-79
2023/12/11 14:48:17;;;;;;;7.00;3.20;;;11.80;99.90;;;;;;10376891;28;20229;-79
2023/12/11 14:53:21;;;;;;;6.43;2.53;;;11.60;99.90;;;;;;10412887;28;20199;-79
2023/12/11 14:58:23;;;;;;;5.60;2.70;;;11.60;99.90;;;;;;10380265;28;20213;-80
2023/12/11 15:03:25;;;;;;;5.03;2.30;;;11.60;99.90;;;;;;10420215;28;20237;-79
2023/12/11 15:08:29;;;;;;;5.50;2.80;;;11.50;99.90;;;;;;10378542;28;20235;-79
2023/12/11 15:13:31;;;;;;;11.50;2.90;;;11.40;99.90;;;;;;10418800;28;20610;-79
2023/12/11 15:18:34;;;;;;;7.40;2.90;;;11.40;99.90;;;;;;10385194;28;20753;-80
2023/12/11 15:23:38;;;;;;;6.73;3.07;;;11.30;99.90;;;;;;10421122;28;20660;-80
2023/12/11 15:28:40;;;;;;;5.90;3.27;;;11.30;99.90;;;;;;10344103;28;20191;-79
2023/12/11 15:33:42;;;;;;;7.67;4.03;;;11.30;99.90;;;;;;10421262;28;20221;-79
2023/12/11 15:38:46;;;;;;;7.53;3.50;;;11.20;99.90;;;;;;10383131;28;20763;-80
2023/12/11 15:43:48;;;;;;;9.37;3.33;;;11.20;99.90;;;;;;10421456;28;20214;-80
2023/12/11 15:48:51;;;;;;;12.57;4.03;;;11.10;99.90;;;;;;10381573;28;20249;-79
2023/12/11 15:53:54;;;;;;;10.07;3.70;;;11.10;99.90;;;;;;10421084;28;20225;-79
2023/12/11 15:58:57;;;;;;;9.27;3.60;;;11.00;99.90;;;;;;10420798;28;20687;-79
2023/12/11 16:04:00;;;;;;;10.03;3.40;;;11.00;99.90;;;;;;10380359;28;20211;-75
2023/12/11 16:09:04;;;;;;;6.70;3.40;;;11.10;99.90;;;;;;10339018;28;20203;-79
2023/12/11 16:14:06;;;;;;;7.20;3.47;;;11.10;99.90;;;;;;10420709;28;20225;-79
2023/12/11 16:19:09;;;;;;;7.00;3.90;;;11.20;99.90;;;;;;10367455;28;20226;-79
2023/12/11 16:24:12;;;;;;;4.90;2.60;;;11.20;99.90;;;;;;10382782;28;20569;-80
2023/12/11 16:29:15;;;;;;;12.50;3.70;;;11.30;99.90;;;;;;10378050;28;20252;-79
2023/12/11 16:34:19;;;;;;;7.47;4.00;;;11.20;99.90;;;;;;10385952;28;20262;-79
2023/12/11 16:39:23;;;;;;;9.27;4.30;;;11.10;99.90;;;;;;10377246;28;20270;-78
2023/12/11 16:44:25;;;;;;;5.70;2.43;;;11.10;99.90;;;;;;10361175;28;20286;-80
2023/12/11 16:49:27;;;;;;;17.77;4.00;;;11.00;99.90;;;;;;10383681;28;20202;-79
2023/12/11 16:54:32;;;;;;;6.23;2.60;;;11.00;99.90;;;;;;10387567;28;20214;-79
2023/12/11 16:59:34;;;;;;;5.90;2.90;;;11.00;99.90;;;;;;10378588;28;20249;-80
2023/12/11 17:04:36;;;;;;;8.97;3.10;;;11.00;99.90;;;;;;10348127;28;20219;-78
2023/12/11 17:09:40;;;;;;;11.17;3.93;;;11.00;99.90;;;;;;10375433;28;20206;-80
2023/12/11 17:14:44;;;;;;;7.97;3.70;;;11.00;99.90;;;;;;10380854;28;20227;-79
2023/12/11 17:19:46;;;;;;;6.90;3.80;;;11.00;99.90;;;;;;10386005;28;20214;-79
2023/12/11 17:24:50;;;;;;;7.33;3.27;;;11.00;99.90;;;;;;10376127;28;20227;-78
2023/12/11 17:29:52;;;;;;;6.60;3.03;;;11.00;99.90;;;;;;10384805;28;20301;-80
2023/12/11 17:34:56;;;;;;;9.63;4.80;;;11.00;99.90;;;;;;10375888;28;20731;-79
2023/12/11 17:40:01;;;;;;;7.57;5.53;;;11.00;99.90;;;;;;10375088;28;20224;-79
2023/12/11 17:45:03;;;;;;;7.23;4.30;;;10.90;99.90;;;;;;10391902;28;20237;-79
2023/12/11 17:50:08;;;;;;;7.83;3.63;;;10.90;99.90;;;;;;10397208;28;20194;-79
2023/12/11 17:55:12;;;;;;;12.33;4.07;;;10.90;99.90;;;;;;10391934;28;20280;-78
2023/12/11 18:00:15;;;;;;;8.77;4.40;;;10.80;99.90;;;;;;10387503;28;20245;-78
2023/12/11 18:05:18;;;;;;;7.10;3.80;;;10.80;99.90;;;;;;10374558;28;20229;-78
2023/12/11 18:10:22;;;;;;;6.03;3.47;;;10.90;99.90;;;;;;10391717;28;20204;-79
2023/12/11 18:15:26;;;;;;;6.27;3.17;;;10.90;99.90;;;;;;10379450;28;20708;-79
2023/12/11 18:20:29;;;;;;;7.17;3.90;;;11.00;99.90;;;;;;10410030;28;20225;-79
2023/12/11 18:25:33;;;;;;;9.63;3.70;;;11.00;99.90;;;;;;10378287;28;20223;-79
2023/12/11 18:30:36;;;;;;;20.30;4.30;;;11.10;99.90;;;;;;10406821;28;20527;-79
2023/12/11 18:35:38;;;;;;;9.87;7.47;;;11.00;99.90;;;;;;10378481;28;20230;-79
2023/12/11 18:40:42;;;;;;;15.10;9.07;;;11.10;99.90;;;;;;10390208;28;20225;-78
2023/12/11 18:45:44;;;;;;;16.23;10.60;;;11.10;99.90;;;;;;10384254;28;20223;-79
2023/12/11 18:50:47;;;;;;;12.40;7.83;;;11.00;99.90;;;;;;10413655;28;20659;-79
2023/12/11 18:55:50;;;;;;;9.00;4.67;;;11.10;99.90;;;;;;10388116;28;20223;-78
2023/12/11 19:00:53;;;;;;;10.97;7.23;;;11.00;99.90;;;;;;10413352;28;20248;-79
2023/12/11 19:05:55;;;;;;;10.97;5.73;;;10.90;99.90;;;;;;10388084;28;20222;-78
2023/12/11 19:10:59;;;;;;;14.67;8.93;;;10.90;99.90;;;;;;10412508;28;20194;-79
2023/12/11 19:16:01;;;;;;;14.30;7.20;;;10.80;99.90;;;;;;10387736;28;20223;-78
2023/12/11 19:21:04;;;;;;;8.20;6.60;;;10.80;99.90;;;;;;10412858;28;20221;-78
2023/12/11 19:26:09;;;;;;;11.90;6.50;;;10.90;99.90;;;;;;10371285;28;20601;-78
2023/12/11 19:31:11;;;;;;;6.43;4.63;;;10.90;99.90;;;;;;10411383;28;20225;-78
2023/12/11 19:36:14;;;;;;;7.17;3.90;;;10.90;99.90;;;;;;10388937;28;20218;-79
2023/12/11 19:41:18;;;;;;;12.40;5.77;;;10.90;99.90;;;;;;10403037;28;20218;-77
2023/12/11 19:46:20;;;;;;;7.63;5.40;;;10.90;99.90;;;;;;10370119;28;20657;-79
2023/12/11 19:51:23;;;;;;;10.57;5.80;;;10.90;99.90;;;;;;10385182;28;20221;-77
2023/12/11 19:56:27;;;;;;;10.27;5.50;;;10.90;99.90;;;;;;10380103;28;20218;-76
2023/12/11 20:01:30;;;;;;;8.80;5.53;;;10.90;99.90;;;;;;10382893;28;20233;-78
2023/12/11 20:06:33;;;;;;;8.60;4.90;;;10.90;99.90;;;;;;10381973;28;20286;-79
2023/12/11 20:11:37;;;;;;;9.73;4.00;;;10.90;99.90;;;;;;10364550;28;20647;-78
2023/12/11 20:16:39;;;;;;;10.97;4.57;;;10.90;99.90;;;;;;10381562;28;20273;-78
2023/12/11 20:21:42;;;;;;;5.00;3.90;;;10.90;99.90;;;;;;10381912;28;20222;-78
2023/12/11 20:26:46;;;;;;;6.23;3.83;;;10.90;99.90;;;;;;10381873;28;20230;-78
2023/12/11 20:31:48;;;;;;;7.47;5.40;;;10.90;99.90;;;;;;10363803;28;20202;-79
2023/12/11 20:36:52;;;;;;;10.37;4.37;;;10.80;99.90;;;;;;10379585;28;20234;-79
2023/12/11 20:41:55;;;;;;;8.77;3.93;;;10.80;99.90;;;;;;10381714;28;20214;-79
2023/12/11 20:46:58;;;;;;;6.97;3.90;;;10.90;99.90;;;;;;10361041;28;20230;-77
2023/12/11 20:52:00;;;;;;;8.33;4.43;;;10.80;99.90;;;;;;10381568;28;20193;-77
2023/12/11 20:57:04;;;;;;;13.97;4.23;;;10.80;99.90;;;;;;10382049;28;20214;-79
2023/12/11 21:02:07;;;;;;;7.47;4.87;;;10.80;99.90;;;;;;10360452;28;20639;-77
2023/12/11 21:07:09;;;;;;;12.67;7.13;;;10.80;99.90;;;;;;10374865;28;20229;-80
2023/12/11 21:12:14;;;;;;;9.10;5.63;;;10.90;99.90;;;;;;10379068;28;20199;-80
2023/12/11 21:17:16;;;;;;;5.40;4.17;;;10.80;99.90;;;;;;10387541;28;20273;-79
2023/12/11 21:22:19;;;;;;;10.10;3.83;;;10.80;99.90;;;;;;10382711;28;20223;-81
2023/12/11 21:27:22;;;;;;;4.27;3.77;;;10.80;99.90;;;;;;10376175;28;20700;-80
2023/12/11 21:32:25;;;;;;;10.10;4.97;;;10.80;99.90;;;;;;10376409;28;20194;-80
2023/12/11 21:37:29;;;;;;;9.57;4.70;;;10.80;99.90;;;;;;10372492;28;20230;-80
2023/12/11 21:42:36;;;;;;;10.40;3.93;;;10.80;99.90;;;;;;10372951;28;20229;-79
2023/12/11 21:47:39;;;;;;;6.47;3.60;;;10.80;99.90;;;;;;10371753;28;20222;-80
2023/12/11 21:52:42;;;;;;;6.50;3.63;;;10.80;99.90;;;;;;10378626;28;20203;-79
2023/12/11 21:57:46;;;;;;;5.73;3.67;;;10.90;99.90;;;;;;10373938;28;20222;-79
2023/12/11 22:02:48;;;;;;;6.23;3.57;;;10.80;99.90;;;;;;10379723;28;20218;-80
2023/12/11 22:07:51;;;;;;;7.37;3.60;;;10.80;99.90;;;;;;10354762;28;20237;-80
2023/12/11 22:12:54;;;;;;;5.90;4.10;;;10.80;99.90;;;;;;10377747;28;20310;-80
2023/12/11 22:17:57;;;;;;;6.20;3.53;;;10.80;99.90;;;;;;10377799;28;20699;-80
2023/12/11 22:22:59;;;;;;;5.97;4.27;;;10.80;99.90;;;;;;10376499;28;20303;-79
2023/12/11 22:28:03;;;;;;;6.50;3.80;;;10.70;99.90;;;;;;10341104;28;20226;-79
2023/12/11 22:33:06;;;;;;;5.67;3.70;;;10.70;99.90;;;;;;10373863;28;20703;-79
2023/12/11 22:38:10;;;;;;;7.73;3.53;;;10.70;99.90;;;;;;10353736;28;20229;-80
2023/12/11 22:43:14;;;;;;;4.80;3.60;;;10.70;99.90;;;;;;10373444;28;20215;-79
2023/12/11 22:48:17;;;;;;;6.63;4.10;;;10.60;99.90;;;;;;10383436;28;20211;-80
2023/12/11 22:53:19;;;;;;;6.33;3.57;;;10.60;99.90;;;;;;10360208;28;20206;-80
2023/12/11 22:58:23;;;;;;;7.53;3.90;;;10.60;99.90;;;;;;10358601;28;20261;-79
2023/12/11 23:03:25;;;;;;;4.90;3.13;;;10.60;99.90;;;;;;10377199;28;20292;-80
2023/12/11 23:08:27;;;;;;;5.43;3.80;;;10.50;99.90;;;;;;10372379;28;20656;-79
2023/12/11 23:13:31;;;;;;;8.20;4.93;;;10.50;99.90;;;;;;10360782;28;20219;-79
2023/12/11 23:18:33;;;;;;;6.57;3.83;;;10.40;99.90;;;;;;10375614;28;20195;-79
2023/12/11 23:23:36;;;;;;;6.57;4.07;;;10.40;99.90;;;;;;10374095;28;20222;-78
2023/12/11 23:28:40;;;;;;;5.67;3.60;;;10.30;99.90;;;;;;10373273;28;20206;-78
2023/12/11 23:33:43;;;;;;;6.70;3.77;;;10.20;99.90;;;;;;10360286;28;20223;-79
2023/12/11 23:38:45;;;;;;;13.20;5.03;;;10.20;99.90;;;;;;10368149;28;20209;-79
2023/12/11 23:43:49;;;;;;;4.20;3.13;;;10.20;99.90;;;;;;10369374;28;20227;-79
2023/12/11 23:48:51;;;;;;;5.77;3.83;;;10.10;99.90;;;;;;10376275;28;20639;-78
2023/12/11 23:53:54;;;;;;;5.30;3.60;;;10.00;99.90;;;;;;10386143;28;20218;-79
2023/12/11 23:58:57;;;;;;;4.63;3.00;;;10.00;99.90;;;;;;10391386;28;20208;-79
